Charles Town, West Virginia
Current Conditions -  °F | °C
As of 6:53 AM on Monday 24 Nov 2014 (Local Time) from KMRB Reporting Station
Clear Clear  
Wind Chill: 52°   Ceiling: Unl
Heat Index: 52°   Visibility: 10mi
Dew Point: 49°   Wind: 3mph
Humidity: 89%   Direction: 180°S
Pressure: 29.61"   Gusts: NA
Location:  39.29°N, 77.86°W
Report Text: KMRB 241153Z 18003KT 10SM CLR 11/09 A2961 RMK AO2 SLP027 60004 70036 T01110094 10139 20094 55000
Loading
Personal Weather Stations






























Interactive Weather Map New forecast layout! Learn more

10-Day Weather Forecast

Advertisements
Track Severe Weather on mobile